METAR AND TAF INFORMATION
METAR FOR LIEE
ADDS - METARS form results

(2106 UTC 24 February 2020)
Data provider http://aviationweather.gov/metar/data/
 
METAR text: LIEE 242050Z 31009KT CAVOK 12/11 Q1022
Conditions at: LIEE (CAGLIARI/ELMAS(A, IT) observed 2050 UTC 24 February 2020
Temperature: 12.0°C (54°F)
Dewpoint: 11.0°C (52°F) [RH = 94%]
Pressure (altimeter): 30.18 inches Hg (1022.0 mb)
Winds: from the NW (310 degrees) at 10 MPH (9 knots; 4.6 m/s)
Visibility: 6 or more miles (10+ km)
Ceiling: ceiling and visibility are OK
Clouds: unknown
Weather: no significant weather observed at this time

METAR text: LIEE 242020Z 31009KT CAVOK 12/11 Q1022
Conditions at: LIEE (CAGLIARI/ELMAS(A, IT) observed 2020 UTC 24 February 2020
Temperature: 12.0°C (54°F)
Dewpoint: 11.0°C (52°F) [RH = 94%]
Pressure (altimeter): 30.18 inches Hg (1022.0 mb)
Winds: from the NW (310 degrees) at 10 MPH (9 knots; 4.6 m/s)
Visibility: 6 or more miles (10+ km)
Ceiling: ceiling and visibility are OK
Clouds: unknown
Weather: no significant weather observed at this time

Forecast for: LIEE (CAGLIARI/ELMAS(A, IT)
Text: TAF LIEE 241700Z 2418/2518 34010KT CAVOK
Forecast period: 1800 UTC 24 February 2020 to 1800 UTC 25 February 2020
Forecast type: FROM: standard forecast or significant change
Winds: from the NNW (340 degrees) at 12 MPH (10 knots; 5.1 m/s)
Visibility: 6 or more miles 10+ km)
Ceiling: unknown
Clouds: missing
Weather: NSW  (no significant weather)

 AIRPORT MAP

 RUNWAY INFORMATION
Runway 14 Runway length 9196 ft Runway width 148 ft
Runway elevation 9 ft Runway displaced threshold 0 ft Runway heading 138
Runway 32 Runway length 9196 ft Runway width 148 ft
Runway elevation 4 ft Runway displaced threshold 0 ft Runway heading 318

 AIRPORT FREQUENCIES
Type APP Name CAGLIARI A Frequency 118.75 MHZ
Type GND Name Elmas GND Frequency 125.425 MHZ
Type MISC Name SAR Frequency 123.1 MHZ
Type TWR Name TWR Frequency 120.6 MHZ

 AIRPORT NEAR NAVIGATION AIDS
Type VOR-DME Name Cagliari Frequency 113400 KHZ
Type NDB Name Cagliari Frequency 371 KHZ